Time;durP1;ratioP1;P1;durP2;ratioP2;P2;SDS_P1;SDS_P2;PMS_P1;PMS_P2;Temp;Humidity;BMP_temperature;BMP_pressure;BME280_temperature;BME280_humidity;BME280_pressure;Samples;Min_cycle;Max_cycle;Signal;HPM_P1;HPM_P2
2022/10/30 00:00:18;;;;;;;16.35;13.70;;;;;;;15.58;100.00;101413.47;4898430;28;20723;-52
2022/10/30 00:02:46;;;;;;;13.52;12.10;;;;;;;15.55;100.00;101413.53;4891455;29;20238;-52
2022/10/30 00:05:13;;;;;;;14.27;12.10;;;;;;;15.50;100.00;101412.69;4893494;28;20332;-52
2022/10/30 00:07:40;;;;;;;17.55;13.25;;;;;;;15.50;100.00;101410.91;4891991;29;20237;-52
2022/10/30 00:10:07;;;;;;;26.80;13.98;;;;;;;15.48;100.00;101412.72;4891179;29;20264;-52
2022/10/30 00:12:34;;;;;;;21.42;13.77;;;;;;;15.54;100.00;101409.09;4892522;29;20265;-52
2022/10/30 00:15:04;;;;;;;16.30;14.45;;;;;;;15.45;100.00;101412.75;4894698;29;20337;-53
2022/10/30 00:17:30;;;;;;;19.38;13.35;;;;;;;15.46;100.00;101410.97;4894755;29;20233;-56
2022/10/30 00:19:57;;;;;;;15.10;12.50;;;;;;;15.46;100.00;101409.19;4899476;29;20735;-53
2022/10/30 00:22:24;;;;;;;14.90;12.20;;;;;;;15.46;100.00;101403.03;4894399;29;20248;-51
2022/10/30 00:24:51;;;;;;;15.23;11.32;;;;;;;15.47;100.00;101400.34;4897395;29;20264;-53
2022/10/30 00:27:18;;;;;;;16.80;13.32;;;;;;;15.55;100.00;101392.34;4895208;29;20613;-52
2022/10/30 00:29:45;;;;;;;15.80;12.95;;;;;;;15.53;100.00;101394.13;4896784;29;20233;-53
2022/10/30 00:32:13;;;;;;;22.15;13.45;;;;;;;15.57;100.00;101394.97;4890592;29;20237;-53
2022/10/30 00:34:40;;;;;;;21.75;14.13;;;;;;;15.59;100.00;101388.78;4891434;29;20324;-52
2022/10/30 00:37:07;;;;;;;18.15;12.45;;;;;;;15.57;100.00;101401.13;4890709;29;20241;-53
2022/10/30 00:39:33;;;;;;;18.65;14.75;;;;;;;15.52;100.00;101392.38;4892769;29;20237;-52
2022/10/30 00:42:00;;;;;;;23.48;15.30;;;;;;;15.49;100.00;101397.69;4890148;29;20249;-51
2022/10/30 00:44:34;;;;;;;23.30;15.02;;;;;;;15.50;100.00;101395.03;4889536;29;20232;-51
2022/10/30 00:47:03;;;;;;;19.23;14.10;;;;;;;15.55;100.00;101395.00;4891191;29;20245;-55
2022/10/30 00:49:36;;;;;;;18.70;15.23;;;;;;;15.48;100.00;101394.19;4891381;29;20245;-53
2022/10/30 00:52:04;;;;;;;19.90;15.82;;;;;;;15.37;100.00;101387.22;4895965;29;20706;-52
2022/10/30 00:54:30;;;;;;;24.52;14.68;;;;;;;15.33;100.00;101390.81;4890783;29;20763;-51
2022/10/30 00:57:00;;;;;;;15.88;13.93;;;;;;;15.42;100.00;101386.31;4891490;29;20241;-53
2022/10/30 00:59:29;;;;;;;25.20;14.32;;;;;;;15.45;100.00;101385.41;4892018;29;20727;-53
2022/10/30 01:01:55;;;;;;;18.13;14.07;;;;;;;15.45;100.00;101377.47;4891288;29;20261;-53
2022/10/30 01:04:22;;;;;;;15.27;13.18;;;;;;;15.40;100.00;101371.31;4888512;29;20305;-53
2022/10/30 01:06:51;;;;;;;23.85;15.02;;;;;;;15.31;100.00;101379.38;4889456;29;20336;-53
2022/10/30 01:09:19;;;;;;;19.33;13.95;;;;;;;15.26;100.00;101369.69;4891130;29;20236;-53
2022/10/30 01:11:46;;;;;;;20.45;14.23;;;;;;;15.28;100.00;101362.63;4891767;29;20237;-51
2022/10/30 01:14:15;;;;;;;15.77;13.45;;;;;;;15.28;100.00;101357.34;4895878;28;20240;-53
2022/10/30 01:16:58;;;;;;;20.10;11.93;;;;;;;15.36;100.00;101359.03;4891599;29;20261;-52
2022/10/30 01:19:26;;;;;;;21.52;14.23;;;;;;;15.26;100.00;101348.53;4891284;29;20233;-53
2022/10/30 01:22:19;;;;;;;19.58;13.10;;;;;;;15.40;100.00;101361.63;4896130;29;20316;-51
2022/10/30 01:24:52;;;;;;;14.90;12.40;;;;;;;15.33;100.00;101361.69;4888983;29;20232;-52
2022/10/30 01:27:32;;;;;;;19.38;12.98;;;;;;;15.31;100.00;101360.84;4892872;29;20241;-52
2022/10/30 01:30:08;;;;;;;14.45;12.73;;;;;;;15.31;100.00;101358.22;4893702;29;20241;-51
2022/10/30 01:32:46;;;;;;;17.83;13.10;;;;;;;15.22;100.00;101356.53;4893982;29;20475;-52
2022/10/30 01:35:19;;;;;;;18.65;13.20;;;;;;;15.19;100.00;101362.72;4894101;29;20237;-52
2022/10/30 01:37:50;;;;;;;18.23;14.00;;;;;;;15.11;100.00;101356.63;4897327;29;20336;-52
2022/10/30 01:40:19;;;;;;;18.67;14.13;;;;;;;15.10;100.00;101354.00;4896758;29;20393;-53
2022/10/30 01:42:48;;;;;;;19.13;14.88;;;;;;;15.00;100.00;101351.44;4896699;29;20292;-52
2022/10/30 01:45:19;;;;;;;16.23;14.40;;;;;;;15.00;100.00;101348.81;4897058;29;20233;-52
2022/10/30 01:47:56;;;;;;;22.70;15.05;;;;;;;14.97;100.00;101347.94;4896349;29;20317;-51
2022/10/30 01:50:28;;;;;;;16.65;14.43;;;;;;;14.92;100.00;101340.06;4897760;29;20233;-52
2022/10/30 01:53:00;;;;;;;19.42;15.63;;;;;;;15.00;100.00;101335.56;4895679;29;20249;-52
2022/10/30 01:55:35;;;;;;;19.33;13.77;;;;;;;15.08;100.00;101330.22;4896400;29;20247;-52
2022/10/30 01:58:09;;;;;;;19.10;15.32;;;;;;;15.12;100.00;101326.63;4896349;29;20240;-52
2022/10/30 02:00:36;;;;;;;19.85;14.25;;;;;;;15.02;100.00;101327.63;4896661;29;20237;-53
2022/10/30 02:03:04;;;;;;;20.38;14.73;;;;;;;15.03;100.00;101335.56;4896795;29;20240;-52
2022/10/30 02:05:37;;;;;;;21.70;16.70;;;;;;;14.98;100.00;101325.91;4897626;29;20244;-52
2022/10/30 02:08:06;;;;;;;22.67;15.27;;;;;;;14.92;100.00;101325.97;4897121;29;20237;-53
2022/10/30 02:10:35;;;;;;;19.35;14.85;;;;;;;14.85;100.00;101325.16;4899865;28;20312;-52
2022/10/30 02:13:02;;;;;;;20.67;16.52;;;;;;;14.84;100.00;101322.50;4895473;29;20245;-52
2022/10/30 02:15:29;;;;;;;18.30;14.88;;;;;;;14.74;100.00;101319.97;4895650;29;20325;-52
2022/10/30 02:17:56;;;;;;;23.00;15.68;;;;;;;14.69;100.00;101319.13;4899015;29;20241;-52
2022/10/30 02:20:24;;;;;;;20.83;14.98;;;;;;;14.64;100.00;101323.56;4897683;29;20268;-50
2022/10/30 02:22:51;;;;;;;23.00;14.35;;;;;;;14.79;100.00;101331.38;4892548;29;20684;-52
2022/10/30 02:25:18;;;;;;;19.30;15.73;;;;;;;14.67;100.00;101335.88;4891133;29;20335;-53
2022/10/30 02:27:45;;;;;;;24.77;16.48;;;;;;;14.64;100.00;101328.88;4893705;29;20501;-51
2022/10/30 02:30:13;;;;;;;16.00;14.10;;;;;;;14.56;100.00;101325.38;4889968;29;20237;-52
2022/10/30 02:32:40;;;;;;;18.63;15.32;;;;;;;14.54;100.00;101320.13;4889475;29;20237;-52
2022/10/30 02:35:08;;;;;;;21.38;14.85;;;;;;;14.53;100.00;101314.84;4889670;29;20265;-53
2022/10/30 02:37:36;;;;;;;17.70;14.15;;;;;;;14.51;100.00;101308.69;4890783;29;20277;-52
2022/10/30 02:40:03;;;;;;;16.40;14.60;;;;;;;14.56;100.00;101305.13;4891222;29;20256;-52
2022/10/30 02:42:30;;;;;;;16.83;14.68;;;;;;;14.50;100.00;101309.59;4892965;29;20863;-52
2022/10/30 02:44:56;;;;;;;19.17;15.52;;;;;;;14.48;100.00;101308.69;4901004;29;20235;-62
2022/10/30 02:47:23;;;;;;;15.98;14.05;;;;;;;14.42;100.00;101306.09;4893552;29;20253;-53
2022/10/30 02:49:50;;;;;;;19.42;14.10;;;;;;;14.40;100.00;101305.25;4898491;29;20241;-53
2022/10/30 02:52:16;;;;;;;18.45;14.82;;;;;;;14.38;100.00;101304.38;4897092;29;20770;-53
2022/10/30 02:54:44;;;;;;;16.10;14.35;;;;;;;14.33;100.00;101300.00;4896374;29;20241;-52
2022/10/30 02:57:11;;;;;;;18.85;14.93;;;;;;;14.29;100.00;101302.69;4895513;29;20261;-52
2022/10/30 02:59:38;;;;;;;15.70;13.82;;;;;;;14.28;100.00;101309.69;4896464;29;20244;-54
2022/10/30 03:02:04;;;;;;;19.83;14.10;;;;;;;14.23;100.00;101308.88;4896702;29;20241;-51
2022/10/30 03:04:31;;;;;;;23.73;14.82;;;;;;;14.21;100.00;101313.28;4895268;29;20787;-52
2022/10/30 03:06:58;;;;;;;18.33;14.90;;;;;;;14.20;100.00;101322.09;4899365;29;20257;-51
2022/10/30 03:09:24;;;;;;;23.45;13.30;;;;;;;14.26;100.00;101324.69;4896531;29;20260;-53
2022/10/30 03:11:52;;;;;;;19.95;14.20;;;;;;;14.26;100.00;101329.09;4895572;29;20241;-53
2022/10/30 03:14:19;;;;;;;23.40;14.52;;;;;;;14.24;100.00;101325.59;4903668;29;20233;-53
2022/10/30 03:16:46;;;;;;;19.13;14.68;;;;;;;14.23;100.00;101323.84;4896196;29;20267;-52
2022/10/30 03:19:13;;;;;;;22.60;15.05;;;;;;;14.19;100.00;101323.00;4896361;29;20241;-53
2022/10/30 03:21:39;;;;;;;16.30;13.63;;;;;;;14.21;100.00;101325.59;4900674;29;20265;-52
2022/10/30 03:24:06;;;;;;;16.52;13.35;;;;;;;14.20;100.00;101314.16;4894495;29;20265;-52
2022/10/30 03:26:33;;;;;;;20.08;12.30;;;;;;;14.18;100.00;101310.69;4895992;29;20296;-53
2022/10/30 03:29:01;;;;;;;15.40;13.80;;;;;;;14.15;100.00;101313.34;4907351;29;20331;-52
2022/10/30 03:31:30;;;;;;;19.20;13.00;;;;;;;14.16;100.00;101312.44;4899016;29;20304;-52
2022/10/30 03:33:57;;;;;;;22.55;13.38;;;;;;;14.17;100.00;101305.38;4896062;29;20229;-53
2022/10/30 03:36:25;;;;;;;19.75;15.00;;;;;;;14.17;100.00;101308.91;4898063;29;20245;-53
2022/10/30 03:38:52;;;;;;;16.23;12.70;;;;;;;14.19;100.00;101298.34;4897269;29;20237;-52
2022/10/30 03:41:19;;;;;;;19.65;14.02;;;;;;;14.16;100.00;101291.31;4898598;29;20248;-53
2022/10/30 03:43:45;;;;;;;20.10;15.18;;;;;;;14.25;100.00;101285.97;4896606;29;20252;-52
2022/10/30 03:46:14;;;;;;;19.27;13.07;;;;;;;14.20;100.00;101277.19;4895879;29;20237;-51
2022/10/30 03:48:40;;;;;;;19.40;12.70;;;;;;;14.27;100.00;101276.25;4895581;29;20304;-51
2022/10/30 03:51:07;;;;;;;17.08;14.10;;;;;;;14.31;100.00;101271.81;4896305;29;20241;-52
2022/10/30 03:53:35;;;;;;;18.05;13.57;;;;;;;14.42;100.00;101261.19;4893411;29;20241;-53
2022/10/30 03:56:04;;;;;;;17.98;13.65;;;;;;;14.62;100.00;101280.41;4895579;29;20240;-52
2022/10/30 03:58:30;;;;;;;14.80;12.73;;;;;;;14.64;100.00;101286.56;4896244;29;20328;-53
2022/10/30 04:01:01;;;;;;;18.25;11.30;;;;;;;14.77;100.00;101289.97;4902202;29;20241;-51
2022/10/30 04:03:29;;;;;;;19.60;12.18;;;;;;;14.93;100.00;101280.13;4902139;29;20262;-53
2022/10/30 04:05:56;;;;;;;20.23;11.90;;;;;;;15.03;100.00;101274.72;4901322;29;20248;-53
2022/10/30 04:08:23;;;;;;;13.38;11.75;;;;;;;14.99;100.00;101285.38;4909282;29;20242;-52
2022/10/30 04:10:50;;;;;;;19.02;12.77;;;;;;;14.89;100.00;101294.28;4897438;29;20342;-52
2022/10/30 04:13:19;;;;;;;15.60;13.07;;;;;;;14.78;100.00;101297.91;4898165;29;20241;-51
2022/10/30 04:15:47;;;;;;;15.63;12.45;;;;;;;14.74;100.00;101296.19;4897647;29;20229;-54
2022/10/30 04:18:15;;;;;;;17.85;11.95;;;;;;;14.68;100.00;101304.16;4894222;29;20255;-52
2022/10/30 04:20:43;;;;;;;14.05;10.73;;;;;;;14.68;100.00;101308.56;4897390;29;20237;-52
2022/10/30 04:23:13;;;;;;;17.17;11.32;;;;;;;14.74;100.00;101296.19;4891113;29;20329;-52
2022/10/30 04:25:40;;;;;;;14.48;11.73;;;;;;;14.73;100.00;101306.75;4892313;29;20236;-51
2022/10/30 04:28:07;;;;;;;19.02;12.00;;;;;;;14.75;100.00;101303.22;4892443;29;20237;-52
2022/10/30 04:30:35;;;;;;;12.60;11.30;;;;;;;14.93;100.00;101309.22;4891843;29;20237;-52
2022/10/30 04:33:03;;;;;;;13.13;11.27;;;;;;;14.83;100.00;101326.06;4891763;29;20256;-52
2022/10/30 04:35:31;;;;;;;14.00;11.32;;;;;;;14.78;100.00;101321.69;4892438;29;20230;-52
2022/10/30 04:38:01;;;;;;;20.77;13.50;;;;;;;14.72;100.00;101313.81;4899505;29;20723;-52
2022/10/30 04:40:29;;;;;;;13.57;11.27;;;;;;;14.86;100.00;101313.69;4894021;29;20229;-55
2022/10/30 04:42:57;;;;;;;14.88;12.32;;;;;;;14.81;100.00;101333.97;4891713;29;20241;-52
2022/10/30 04:45:23;;;;;;;16.13;11.80;;;;;;;14.73;100.00;101323.47;4890809;29;20317;-51
2022/10/30 04:47:50;;;;;;;17.83;13.07;;;;;;;14.66;100.00;101305.91;4889608;29;20798;-53
2022/10/30 04:50:18;;;;;;;19.20;12.45;;;;;;;14.64;100.00;101312.13;4890237;29;20237;-51
2022/10/30 04:52:45;;;;;;;15.73;11.65;;;;;;;14.59;100.00;101306.88;4889672;29;20245;-54
2022/10/30 04:55:13;;;;;;;15.88;12.20;;;;;;;14.56;100.00;101312.16;4892382;29;20397;-52
2022/10/30 04:57:40;;;;;;;16.83;10.98;;;;;;;14.65;100.00;101298.88;4891761;29;20276;-52
2022/10/30 05:00:09;;;;;;;13.70;12.07;;;;;;;14.80;100.00;101297.88;4898508;28;20316;-53
2022/10/30 05:02:36;;;;;;;18.65;11.80;;;;;;;14.98;100.00;101299.44;4890885;29;20287;-52
2022/10/30 05:05:03;;;;;;;17.98;11.45;;;;;;;14.87;100.00;101302.19;4891322;29;20877;-54
2022/10/30 05:07:30;;;;;;;14.23;11.13;;;;;;;14.89;100.00;101297.78;4891819;29;20313;-51
2022/10/30 05:09:57;;;;;;;16.48;12.70;;;;;;;14.82;100.00;101303.16;4891357;29;20650;-51
2022/10/30 05:12:25;;;;;;;13.05;11.70;;;;;;;14.75;100.00;101302.34;4890976;29;20855;-52
2022/10/30 05:14:52;;;;;;;18.30;12.30;;;;;;;14.68;100.00;101313.84;4891527;29;20233;-54
2022/10/30 05:17:19;;;;;;;13.98;12.52;;;;;;;14.63;100.00;101292.72;4891285;29;20259;-52
2022/10/30 05:19:46;;;;;;;14.57;12.05;;;;;;;14.61;100.00;101302.44;4894955;29;20272;-52
2022/10/30 05:22:12;;;;;;;21.73;13.07;;;;;;;14.53;100.00;101285.78;4891117;29;20241;-51
2022/10/30 05:24:39;;;;;;;15.43;12.15;;;;;;;14.60;100.00;101276.94;4892186;29;20608;-52
2022/10/30 05:27:06;;;;;;;20.08;12.68;;;;;;;14.61;100.00;101272.50;4894013;29;20230;-51
2022/10/30 05:29:34;;;;;;;21.05;12.93;;;;;;;14.56;100.00;101254.91;4892531;29;20873;-51
2022/10/30 05:32:03;;;;;;;26.60;13.00;;;;;;;14.78;100.00;101255.59;4889650;29;20241;-52
2022/10/30 05:34:29;;;;;;;16.85;13.15;;;;;;;14.85;100.00;101252.88;4890224;29;20265;-51
2022/10/30 05:36:56;;;;;;;19.33;11.68;;;;;;;14.88;100.00;101252.84;4890251;29;20241;-52
2022/10/30 05:39:23;;;;;;;17.73;11.80;;;;;;;14.73;100.00;101265.31;4886984;29;20966;-52
2022/10/30 05:41:50;;;;;;;14.25;11.18;;;;;;;14.64;100.00;101278.66;4890341;29;20241;-52
2022/10/30 05:44:17;;;;;;;13.25;11.00;;;;;;;14.51;100.00;101287.56;4890957;29;20252;-52
2022/10/30 05:46:45;;;;;;;15.07;11.63;;;;;;;14.46;100.00;101305.16;4891333;29;20241;-52
2022/10/30 05:49:12;;;;;;;19.75;12.70;;;;;;;14.57;100.00;101271.66;4890395;29;20265;-58
2022/10/30 05:51:39;;;;;;;19.00;12.43;;;;;;;14.47;100.00;101246.19;4891124;29;20286;-53
2022/10/30 05:54:06;;;;;;;15.35;11.70;;;;;;;14.45;100.00;101245.31;4892980;29;20241;-53
2022/10/30 05:56:33;;;;;;;16.75;12.20;;;;;;;14.39;100.00;101280.59;4897383;28;20265;-53
2022/10/30 05:58:59;;;;;;;16.63;13.15;;;;;;;14.37;100.00;101268.28;4894926;29;21447;-52
2022/10/30 06:01:26;;;;;;;13.20;10.32;;;;;;;14.37;100.00;101242.72;4894143;29;20666;-52
2022/10/30 06:03:54;;;;;;;17.35;11.70;;;;;;;14.39;100.00;101271.75;4895113;29;20233;-52
2022/10/30 06:06:21;;;;;;;14.57;11.43;;;;;;;14.40;100.00;101261.19;4894707;29;20236;-52
2022/10/30 06:08:48;;;;;;;21.17;11.93;;;;;;;14.37;100.00;101263.00;4896329;29;20261;-52
2022/10/30 06:11:15;;;;;;;15.10;11.07;;;;;;;14.40;100.00;101257.69;4893498;29;20249;-52
2022/10/30 06:13:41;;;;;;;22.05;11.73;;;;;;;14.37;100.00;101269.16;4891050;29;20241;-53
2022/10/30 06:16:08;;;;;;;12.10;9.85;;;;;;;14.37;100.00;101270.91;4894251;29;20241;-52
2022/10/30 06:18:35;;;;;;;15.57;9.85;;;;;;;14.42;100.00;101255.88;4892178;29;20291;-52
2022/10/30 06:21:03;;;;;;;14.05;11.02;;;;;;;14.39;100.00;101261.19;4893014;29;20293;-52
2022/10/30 06:23:30;;;;;;;14.75;11.82;;;;;;;14.39;100.00;101248.88;4890416;29;20359;-52
2022/10/30 06:25:57;;;;;;;13.55;11.05;;;;;;;14.45;100.00;101240.88;4890813;29;20229;-53
2022/10/30 06:28:24;;;;;;;24.17;10.68;;;;;;;14.42;100.00;101234.75;4888212;29;20251;-51
2022/10/30 06:30:50;;;;;;;12.90;11.30;;;;;;;14.50;100.00;101232.97;4893050;29;20301;-52
2022/10/30 06:33:17;;;;;;;13.63;10.65;;;;;;;14.61;100.00;101232.88;4889550;29;20908;-52
2022/10/30 06:35:44;;;;;;;17.02;10.50;;;;;;;14.61;100.00;101236.38;4889774;29;20243;-52
2022/10/30 06:41:34;;;;;;;17.38;12.40;;;;;;;14.62;100.00;101259.28;4887968;29;20243;-52
2022/10/30 06:44:15;;;;;;;12.80;11.32;;;;;;;14.64;100.00;101257.50;4888425;29;20245;-52
2022/10/30 06:46:41;;;;;;;15.10;11.52;;;;;;;14.58;100.00;101252.28;4888751;29;20256;-51
2022/10/30 06:49:43;;;;;;;13.57;9.95;;;;;;;14.55;100.00;101252.28;4890282;29;20332;-52
2022/10/30 06:52:10;;;;;;;13.57;11.13;;;;;;;14.51;100.00;101261.16;4890535;29;20236;-52
2022/10/30 07:01:09;;;;;;;14.65;10.50;;;;;;;14.60;100.00;101276.94;4953067;28;20245;-54
2022/10/30 07:04:12;;;;;;;10.90;9.95;;;;;;;14.58;100.00;101275.19;4964276;28;20236;-53
2022/10/30 07:13:22;;;;;;;15.45;10.13;;;;;;;14.48;100.00;101290.19;4866468;29;20236;-53
2022/10/30 07:24:13;;;;;;;11.55;10.05;;;;;;;14.62;100.00;101290.97;5138696;27;20558;-54
2022/10/30 07:30:00;;;;;;;15.70;9.93;;;;;;;14.65;100.00;101306.81;5012104;28;20724;-54
2022/10/30 07:32:26;;;;;;;15.48;10.82;;;;;;;14.68;100.00;101313.84;5037473;28;20228;-55
2022/10/30 07:38:23;;;;;;;13.55;10.75;;;;;;;14.91;100.00;101313.63;4759366;29;20728;-53
2022/10/30 07:43:41;;;;;;;11.85;10.43;;;;;;;15.06;100.00;101318.78;5131816;27;20555;-54
2022/10/30 07:46:08;;;;;;;11.82;9.50;;;;;;;15.11;100.00;101316.97;5139220;27;20235;-54
2022/10/30 08:18:05;;;;;;;11.13;10.02;;;;;;;15.22;100.00;101322.13;4766699;29;20244;-52
2022/10/30 08:23:11;;;;;;;16.50;9.15;;;;;;;15.19;100.00;101323.03;5125408;27;20858;-53
2022/10/30 08:25:52;;;;;;;12.85;9.95;;;;;;;15.19;100.00;101325.69;5127047;27;20237;-51
2022/10/30 08:28:18;;;;;;;13.75;11.02;;;;;;;15.16;100.00;101325.75;5124879;27;20217;-52
2022/10/30 08:30:45;;;;;;;12.98;10.20;;;;;;;15.16;100.00;101325.75;5118683;28;20282;-53
2022/10/30 08:33:12;;;;;;;13.48;9.73;;;;;;;15.24;100.00;101318.59;5109200;28;20291;-53
2022/10/30 08:35:58;;;;;;;13.48;10.18;;;;;;;15.39;100.00;101316.66;5068386;28;20255;-52
2022/10/30 08:38:25;;;;;;;12.10;8.93;;;;;;;15.48;100.00;101329.78;4762153;29;20255;-53
2022/10/30 10:44:00;;;;;;;13.32;5.80;;;;;;;19.15;85.87;101329.03;4485174;31;20311;-53
2022/10/30 10:46:49;;;;;;;9.82;5.68;;;;;;;19.12;85.97;101313.13;4503693;31;1465884;-53
2022/10/30 10:49:37;;;;;;;13.10;5.45;;;;;;;19.13;84.66;101312.19;4581742;31;20243;-53
2022/10/30 10:52:08;;;;;;;11.05;5.82;;;;;;;19.17;82.71;101311.22;4607136;30;20248;-52
2022/10/30 10:54:38;;;;;;;14.05;5.60;;;;;;;19.27;81.12;101312.72;4607146;31;20243;-51
2022/10/30 10:57:06;;;;;;;14.43;5.38;;;;;;;19.31;81.49;101311.72;4607754;31;20255;-52
2022/10/30 10:59:38;;;;;;;9.98;5.32;;;;;;;19.38;80.93;101305.31;4607661;31;20248;-51
2022/10/30 11:02:24;;;;;;;9.40;5.68;;;;;;;19.44;80.56;101305.09;4607369;31;20771;-52
2022/10/30 11:04:54;;;;;;;13.00;4.78;;;;;;;19.41;79.77;101307.88;4601535;30;20335;-53
2022/10/30 11:07:22;;;;;;;17.45;6.30;;;;;;;19.46;78.99;101308.59;4607460;31;20255;-53
2022/10/30 11:10:22;;;;;;;12.48;5.63;;;;;;;19.51;78.92;101305.81;4609467;30;20239;-52
2022/10/30 11:12:49;;;;;;;7.15;5.25;;;;;;;19.54;79.61;101295.94;4574262;31;20845;-52
2022/10/30 11:32:05;;;;;;;10.90;4.75;;;;;;;19.81;76.03;101300.53;4575110;31;20744;-52
2022/10/30 11:34:43;;;;;;;9.65;5.57;;;;;;;19.79;76.20;101300.56;4571759;31;20287;-52
2022/10/30 11:53:59;;;;;;;19.17;6.38;;;;;;;20.03;71.64;101301.63;4689964;30;20240;-51
2022/10/30 11:59:50;;;;;;;12.23;4.63;;;;;;;20.14;71.55;101302.16;4690549;30;20738;-53
2022/10/30 12:02:22;;;;;;;13.80;5.22;;;;;;;20.16;70.96;101294.13;4691631;30;20344;-52
2022/10/30 12:04:50;;;;;;;8.82;4.65;;;;;;;20.16;72.25;101294.13;4691182;30;20240;-53
2022/10/30 12:07:24;;;;;;;10.07;5.13;;;;;;;20.23;71.95;101293.88;4691430;30;20254;-52
2022/10/30 12:09:52;;;;;;;19.15;6.00;;;;;;;20.22;72.15;101291.25;4691710;30;20613;-53
2022/10/30 12:12:26;;;;;;;9.20;4.65;;;;;;;20.25;71.89;101288.47;4691732;30;20298;-52
2022/10/30 12:14:53;;;;;;;6.30;4.57;;;;;;;20.24;72.46;101302.72;4692167;30;20283;-52
2022/10/30 12:31:29;;;;;;;16.33;5.65;;;;;;;20.62;67.36;101308.66;4691516;30;20335;-53
2022/10/30 12:34:28;;;;;;;9.68;4.78;;;;;;;20.52;68.02;101302.75;4692426;30;20248;-52
2022/10/30 12:36:59;;;;;;;9.13;4.18;;;;;;;20.55;67.51;101296.44;4690991;30;20260;-52
2022/10/30 12:39:29;;;;;;;7.88;4.72;;;;;;;20.61;67.37;101293.56;4690326;30;20251;-52
2022/10/30 12:42:00;;;;;;;8.40;4.65;;;;;;;20.52;68.80;101296.53;4693118;30;20720;-52
2022/10/30 12:44:28;;;;;;;10.98;5.20;;;;;;;20.55;67.73;101294.63;4783383;29;20248;-51
2022/10/30 12:47:01;;;;;;;12.55;4.20;;;;;;;20.56;68.45;101298.16;4825865;29;20583;-52
2022/10/30 12:49:34;;;;;;;7.38;4.47;;;;;;;20.49;68.48;101297.47;4870485;29;20236;-51
2022/10/30 12:52:04;;;;;;;6.18;4.10;;;;;;;20.44;69.01;101289.63;4889174;29;20245;-53
2022/10/30 12:54:34;;;;;;;10.93;4.57;;;;;;;20.47;69.09;101288.66;4888343;29;20245;-55
2022/10/30 12:57:07;;;;;;;7.63;5.18;;;;;;;20.43;70.56;101281.69;4889122;29;20256;-53
2022/10/30 12:59:39;;;;;;;6.70;4.32;;;;;;;20.32;71.18;101294.47;4887411;29;20263;-53
2022/10/30 13:02:16;;;;;;;10.65;4.53;;;;;;;20.31;70.93;101288.28;4889136;29;20237;-51
2022/10/30 13:04:46;;;;;;;6.05;4.30;;;;;;;20.27;71.97;101286.63;4885830;29;20689;-53
2022/10/30 13:47:27;;;;;;;9.07;5.30;;;;;;;19.96;75.62;101276.06;4882919;29;20918;-53
2022/10/30 13:50:21;;;;;;;10.00;4.65;;;;;;;19.93;76.63;101277.03;4900682;29;20246;-55
2022/10/30 13:59:59;;;;;;;13.65;5.07;;;;;;;19.92;75.97;101269.97;4903167;28;20380;-55
2022/10/30 14:02:43;;;;;;;7.53;4.53;;;;;;;19.95;75.77;101269.88;4898522;29;20237;-54
2022/10/30 14:05:19;;;;;;;5.88;4.35;;;;;;;19.90;76.82;101277.16;4900879;29;20612;-55
2022/10/30 14:12:00;;;;;;;12.07;4.47;;;;;;;19.84;76.44;101281.78;4901095;29;20267;-54
2022/10/30 14:14:48;;;;;;;5.25;4.32;;;;;;;19.84;77.12;101279.13;4899084;29;20237;-54
2022/10/30 14:17:18;;;;;;;6.05;3.92;;;;;;;19.77;78.97;101287.31;4906199;29;20252;-53
2022/10/30 14:23:13;;;;;;;7.35;4.45;;;;;;;19.66;79.12;101283.22;4896183;29;20306;-54
2022/10/30 14:29:55;;;;;;;8.95;5.25;;;;;;;19.66;79.75;101289.44;4897582;29;20970;-54
2022/10/30 15:16:09;;;;;;;6.82;5.35;;;;;;;18.40;93.34;101281.25;4908717;29;20315;-54
2022/10/30 15:39:10;;;;;;;8.38;5.35;;;;;;;17.98;96.67;101284.03;4863034;29;20245;-55
2022/10/30 16:29:09;;;;;;;6.65;6.05;;;;;;;16.81;100.00;101271.34;4895321;28;20239;-54
2022/10/30 16:36:26;;;;;;;20.48;12.48;;;;;;;16.72;100.00;101276.78;4897573;29;20463;-56
2022/10/30 16:38:53;;;;;;;22.23;16.80;;;;;;;16.69;100.00;101277.72;4893912;29;20743;-54
2022/10/30 17:02:18;;;;;;;23.17;16.90;;;;;;;16.36;100.00;101279.16;4907398;29;20702;-54
2022/10/30 17:04:49;;;;;;;26.67;20.27;;;;;;;16.31;100.00;101283.66;4907876;29;20630;-55
2022/10/30 17:07:18;;;;;;;26.25;19.40;;;;;;;16.28;100.00;101284.56;4908127;29;20244;-54
2022/10/30 17:09:47;;;;;;;28.15;21.48;;;;;;;16.25;100.00;101283.75;4908520;29;20248;-54
2022/10/30 17:12:22;;;;;;;30.08;20.25;;;;;;;16.23;100.00;101289.06;4905931;29;20224;-55
2022/10/30 17:23:18;;;;;;;33.33;24.42;;;;;;;16.15;100.00;101298.94;4989266;28;20232;-53
2022/10/30 17:25:45;;;;;;;32.78;24.95;;;;;;;16.13;100.00;101298.06;4978329;28;21205;-53
2022/10/30 17:28:26;;;;;;;29.88;23.60;;;;;;;16.11;100.00;101305.16;4977202;28;20304;-53
2022/10/30 17:37:36;;;;;;;29.40;22.63;;;;;;;15.92;100.00;101315.13;4995997;28;20263;-55
2022/10/30 17:40:07;;;;;;;28.45;21.73;;;;;;;15.89;100.00;101313.41;4996807;28;20252;-53
2022/10/30 17:46:00;;;;;;;31.63;22.50;;;;;;;15.82;100.00;101321.44;4995296;28;20256;-54
2022/10/30 17:51:51;;;;;;;29.75;19.48;;;;;;;15.71;100.00;101308.34;4992700;28;20537;-52
2022/10/30 17:54:20;;;;;;;23.75;18.85;;;;;;;15.67;100.00;101315.47;4996097;28;20331;-53
2022/10/30 17:56:48;;;;;;;21.10;17.20;;;;;;;15.66;100.00;101311.06;4997668;28;20253;-54
2022/10/30 17:59:15;;;;;;;22.52;18.27;;;;;;;15.63;100.00;101308.44;4975320;28;20317;-53
2022/10/30 18:01:42;;;;;;;23.92;17.65;;;;;;;15.63;100.00;101303.13;4973640;28;20712;-54
2022/10/30 18:07:31;;;;;;;20.27;16.27;;;;;;;15.56;100.00;101312.03;4996951;28;20749;-54
2022/10/30 18:09:57;;;;;;;26.35;17.58;;;;;;;15.55;100.00;101312.03;4998347;28;20240;-53
2022/10/30 18:12:25;;;;;;;22.52;16.25;;;;;;;15.55;100.00;101310.31;4999138;28;20241;-54
2022/10/30 18:18:13;;;;;;;21.63;15.95;;;;;;;15.52;100.00;101323.56;4992973;28;20332;-55
2022/10/30 18:20:41;;;;;;;18.25;13.15;;;;;;;15.48;100.00;101314.78;4983583;28;20246;-54
2022/10/30 18:23:16;;;;;;;16.05;12.75;;;;;;;15.46;100.00;101313.91;4982163;28;20295;-53
2022/10/30 18:25:43;;;;;;;19.67;13.10;;;;;;;15.40;100.00;101323.69;4979541;28;20330;-53
2022/10/30 18:28:24;;;;;;;13.10;10.70;;;;;;;15.36;100.00;101316.69;4983695;28;20242;-54
2022/10/30 18:37:34;;;;;;;17.58;13.23;;;;;;;15.25;100.00;101314.16;4995399;28;20324;-53
2022/10/30 18:40:01;;;;;;;18.90;11.82;;;;;;;15.21;100.00;101321.25;4998718;28;20233;-52
2022/10/30 18:45:53;;;;;;;18.00;12.55;;;;;;;15.16;100.00;101320.44;4997249;28;20232;-53
2022/10/30 18:54:17;;;;;;;26.40;14.75;;;;;;;15.12;100.00;101316.06;4962848;28;20238;-54
2022/10/30 18:56:44;;;;;;;16.23;13.25;;;;;;;15.08;100.00;101321.41;4992993;28;20279;-55
2022/10/30 19:00:06;;;;;;;19.58;14.90;;;;;;;15.06;100.00;101308.22;4995282;28;20710;-54
2022/10/30 19:02:34;;;;;;;22.15;15.75;;;;;;;15.05;100.00;101322.31;4973363;28;20245;-54
2022/10/30 19:11:44;;;;;;;29.48;21.00;;;;;;;14.94;100.00;101306.53;4973186;28;20233;-57
2022/10/30 19:17:34;;;;;;;19.83;15.48;;;;;;;14.90;100.00;101311.88;4973796;28;20245;-55
2022/10/30 19:20:01;;;;;;;31.25;22.83;;;;;;;14.89;100.00;101304.84;4974467;28;20234;-55
2022/10/30 19:22:28;;;;;;;40.70;27.85;;;;;;;14.85;100.00;101301.38;4974206;28;20230;-54
2022/10/30 19:24:55;;;;;;;42.80;30.88;;;;;;;14.83;100.00;101304.91;4974263;28;20820;-55
2022/10/30 19:27:23;;;;;;;52.38;33.42;;;;;;;14.78;100.00;101297.03;4973758;28;20643;-54